Time;durP1;ratioP1;P1;durP2;ratioP2;P2;SDS_P1;SDS_P2;PMS_P1;PMS_P2;Temp;Humidity;BMP_temperature;BMP_pressure;BME280_temperature;BME280_humidity;BME280_pressure;Samples;Min_cycle;Max_cycle;Signal;HPM_P1;HPM_P2
2022/07/03 00:01:17;;;;;;;3.83;2.58;;;24.30;63.90;;;;;;10131659;28;20028;-62
2022/07/03 00:06:08;;;;;;;4.00;2.55;;;24.10;64.60;;;;;;10131660;28;20414;-58
2022/07/03 00:10:59;;;;;;;4.15;1.95;;;24.00;65.30;;;;;;10107806;28;20044;-63
2022/07/03 00:15:50;;;;;;;4.05;2.40;;;23.90;65.70;;;;;;10131000;28;20036;-56
2022/07/03 00:20:45;;;;;;;6.05;1.98;;;24.00;66.20;;;;;;10130954;28;20105;-62
2022/07/03 00:25:39;;;;;;;3.25;2.35;;;23.90;66.50;;;;;;10134571;28;20052;-60
2022/07/03 00:30:30;;;;;;;2.30;1.90;;;24.00;66.80;;;;;;10137971;28;20034;-58
2022/07/03 00:35:21;;;;;;;3.05;2.30;;;23.90;67.30;;;;;;10138153;28;20021;-68
2022/07/03 00:40:12;;;;;;;3.38;1.95;;;23.80;67.80;;;;;;10129365;28;20306;-57
2022/07/03 00:45:06;;;;;;;2.67;2.10;;;23.60;68.50;;;;;;10137022;28;20419;-66
2022/07/03 00:50:00;;;;;;;1.60;1.42;;;23.60;69.00;;;;;;10137949;28;20024;-69
2022/07/03 00:54:53;;;;;;;3.22;1.83;;;23.60;69.30;;;;;;10137543;28;20025;-61
2022/07/03 00:59:44;;;;;;;3.05;1.73;;;23.60;69.80;;;;;;10138246;28;20222;-65
2022/07/03 01:04:34;;;;;;;1.90;1.67;;;23.40;70.20;;;;;;10134253;28;20139;-64
2022/07/03 01:09:42;;;;;;;3.45;1.58;;;23.30;71.30;;;;;;10128143;28;20047;-60
2022/07/03 01:14:50;;;;;;;2.25;1.73;;;23.30;72.20;;;;;;10131000;28;20024;-70
2022/07/03 01:19:42;;;;;;;3.42;2.42;;;23.10;73.40;;;;;;10114381;28;20036;-68
2022/07/03 01:25:07;;;;;;;2.10;1.50;;;23.00;73.80;;;;;;10137411;28;20064;-66
2022/07/03 01:30:12;;;;;;;4.57;1.80;;;23.00;74.90;;;;;;10137225;28;20296;-54
2022/07/03 01:35:04;;;;;;;2.10;1.70;;;23.00;75.00;;;;;;10111476;28;20070;-53
2022/07/03 01:39:57;;;;;;;3.05;1.80;;;22.90;75.40;;;;;;10136878;28;20383;-65
2022/07/03 01:44:50;;;;;;;2.15;1.55;;;22.70;76.50;;;;;;10124736;28;20064;-54
2022/07/03 01:49:42;;;;;;;2.83;1.70;;;22.60;77.20;;;;;;10136202;28;20391;-65
2022/07/03 01:54:34;;;;;;;3.45;1.90;;;22.40;78.40;;;;;;10134906;28;20112;-62
2022/07/03 01:59:25;;;;;;;3.72;1.95;;;22.50;79.00;;;;;;10134870;28;20013;-65
2022/07/03 02:04:23;;;;;;;2.25;1.67;;;22.50;79.60;;;;;;10134908;28;20123;-66
2022/07/03 02:09:18;;;;;;;2.38;1.80;;;22.40;80.40;;;;;;10134725;28;20016;-63
2022/07/03 02:14:14;;;;;;;2.17;1.55;;;22.30;81.70;;;;;;10136840;28;20077;-68
2022/07/03 02:19:08;;;;;;;4.30;1.52;;;22.20;82.60;;;;;;10135053;28;20021;-65
2022/07/03 02:24:05;;;;;;;2.40;2.10;;;22.20;83.40;;;;;;10134245;28;20025;-56
2022/07/03 02:29:04;;;;;;;2.38;1.50;;;22.30;84.10;;;;;;10133772;28;20459;-53
2022/07/03 02:33:58;;;;;;;1.63;1.52;;;22.30;85.00;;;;;;10133583;28;20024;-67
2022/07/03 02:38:55;;;;;;;2.17;1.60;;;22.20;85.80;;;;;;10134445;28;20032;-68
2022/07/03 02:43:58;;;;;;;2.20;1.60;;;22.00;87.00;;;;;;10133829;28;20044;-70
2022/07/03 02:48:51;;;;;;;2.70;1.83;;;21.90;88.30;;;;;;10132682;28;20166;-61
2022/07/03 02:53:48;;;;;;;2.03;1.80;;;21.70;89.10;;;;;;10132763;28;20024;-58
2022/07/03 02:59:10;;;;;;;1.80;1.58;;;21.70;90.00;;;;;;10132523;28;20533;-64
2022/07/03 03:04:30;;;;;;;3.38;1.70;;;21.70;90.40;;;;;;10131111;28;20040;-64
2022/07/03 03:09:26;;;;;;;1.95;1.75;;;21.90;90.50;;;;;;10130787;28;20109;-64
2022/07/03 03:14:21;;;;;;;2.10;1.40;;;21.90;90.60;;;;;;10129963;28;20025;-57
2022/07/03 03:19:12;;;;;;;1.95;1.60;;;21.80;91.00;;;;;;10132853;28;20442;-55
2022/07/03 03:24:04;;;;;;;2.00;1.52;;;21.80;91.20;;;;;;10131990;28;20589;-64
2022/07/03 03:28:55;;;;;;;1.75;1.50;;;21.80;91.50;;;;;;10112838;28;20056;-65
2022/07/03 03:33:49;;;;;;;2.72;1.40;;;21.70;91.70;;;;;;10131152;28;20013;-65
2022/07/03 03:38:40;;;;;;;1.70;1.42;;;21.60;92.10;;;;;;10131109;28;20035;-59
2022/07/03 03:43:31;;;;;;;1.73;1.55;;;21.50;92.40;;;;;;10131289;28;20031;-65
2022/07/03 03:48:22;;;;;;;1.90;1.70;;;21.40;92.80;;;;;;10132106;28;20020;-61
2022/07/03 03:53:14;;;;;;;1.63;1.52;;;21.30;93.10;;;;;;10131100;28;20062;-61
2022/07/03 03:58:04;;;;;;;2.28;1.40;;;21.50;93.20;;;;;;10130851;28;20085;-67
2022/07/03 04:02:55;;;;;;;3.70;1.63;;;21.30;93.50;;;;;;10138562;28;20475;-63
2022/07/03 04:07:46;;;;;;;2.17;1.30;;;21.30;93.80;;;;;;10139116;28;20041;-59
2022/07/03 04:12:36;;;;;;;1.88;1.52;;;21.30;93.90;;;;;;10138838;28;20048;-61
2022/07/03 04:17:27;;;;;;;3.00;1.98;;;21.20;94.00;;;;;;10138858;28;20028;-58
2022/07/03 04:22:18;;;;;;;3.30;1.98;;;21.20;94.20;;;;;;10138773;28;20032;-54
2022/07/03 04:27:08;;;;;;;3.90;1.95;;;21.30;94.20;;;;;;10138742;28;20089;-50
2022/07/03 04:31:59;;;;;;;2.40;1.75;;;21.20;94.30;;;;;;10138267;28;20552;-62
2022/07/03 04:36:50;;;;;;;2.25;1.90;;;21.20;94.50;;;;;;10138359;28;20435;-54
2022/07/03 04:41:41;;;;;;;2.75;1.80;;;21.30;94.50;;;;;;10138074;28;20032;-59
2022/07/03 04:46:31;;;;;;;1.58;1.40;;;21.30;94.50;;;;;;10138207;28;20169;-55
2022/07/03 04:51:22;;;;;;;2.85;1.60;;;21.30;94.50;;;;;;10138155;28;20024;-55
2022/07/03 04:56:13;;;;;;;2.83;2.10;;;21.30;94.50;;;;;;10137506;28;20714;-58
2022/07/03 05:01:03;;;;;;;1.55;1.35;;;21.30;94.50;;;;;;10137813;28;20016;-52
2022/07/03 05:05:54;;;;;;;1.88;1.50;;;21.40;94.50;;;;;;10115682;28;20039;-54
2022/07/03 05:10:44;;;;;;;3.58;1.50;;;21.30;94.40;;;;;;10128545;28;20197;-52
2022/07/03 05:15:35;;;;;;;2.50;1.40;;;21.30;94.40;;;;;;10132468;28;20395;-52
2022/07/03 05:20:28;;;;;;;3.45;1.50;;;21.50;94.30;;;;;;10132722;28;20024;-56
2022/07/03 05:25:20;;;;;;;3.65;1.45;;;21.60;94.20;;;;;;10135598;28;20039;-49
2022/07/03 05:30:11;;;;;;;1.48;1.20;;;21.60;94.20;;;;;;10136624;28;20103;-57
2022/07/03 05:35:03;;;;;;;1.73;1.58;;;21.80;94.10;;;;;;10135765;28;20032;-53
2022/07/03 05:39:53;;;;;;;5.28;2.45;;;21.90;94.00;;;;;;10136108;28;20024;-51
2022/07/03 05:44:44;;;;;;;1.50;1.10;;;21.90;93.90;;;;;;10135570;28;20699;-49
2022/07/03 05:49:35;;;;;;;2.45;1.27;;;21.90;93.90;;;;;;10101458;28;20035;-61
2022/07/03 05:54:25;;;;;;;1.45;1.20;;;21.90;94.20;;;;;;10135987;28;20514;-62
2022/07/03 05:59:16;;;;;;;2.17;1.55;;;22.00;93.80;;;;;;10134827;28;20221;-60
2022/07/03 06:04:07;;;;;;;11.25;1.70;;;22.00;93.70;;;;;;10112380;28;20012;-67
2022/07/03 06:08:57;;;;;;;2.22;1.55;;;22.20;93.60;;;;;;10135356;28;20028;-52
2022/07/03 06:13:48;;;;;;;4.97;2.05;;;22.30;93.50;;;;;;10135388;28;20041;-55
2022/07/03 06:18:39;;;;;;;3.67;1.95;;;22.40;93.40;;;;;;10133495;28;20036;-67
2022/07/03 06:23:29;;;;;;;8.32;3.78;;;22.40;93.30;;;;;;10132696;28;20028;-64
2022/07/03 06:28:20;;;;;;;2.45;1.50;;;22.50;93.20;;;;;;10095457;28;20771;-65
2022/07/03 06:33:11;;;;;;;2.80;1.40;;;22.60;93.10;;;;;;10134038;28;20337;-66
2022/07/03 06:38:05;;;;;;;2.42;1.15;;;22.70;92.90;;;;;;10134282;28;20020;-61
2022/07/03 06:42:56;;;;;;;2.35;1.30;;;22.90;92.80;;;;;;10134268;28;20056;-64
2022/07/03 06:47:46;;;;;;;3.35;2.05;;;23.00;92.70;;;;;;10126189;28;20067;-59
2022/07/03 06:52:37;;;;;;;3.25;2.08;;;23.00;92.50;;;;;;10130863;28;20032;-62
2022/07/03 06:57:27;;;;;;;4.43;2.75;;;23.20;92.40;;;;;;10134684;28;20115;-53
2022/07/03 07:02:18;;;;;;;2.33;1.63;;;23.20;92.20;;;;;;10130641;28;20423;-56
2022/07/03 07:07:09;;;;;;;1.90;1.52;;;23.20;92.10;;;;;;10132813;28;20434;-56
2022/07/03 07:11:59;;;;;;;2.97;1.83;;;23.30;92.00;;;;;;10131973;28;20056;-64
2022/07/03 07:16:50;;;;;;;1.60;1.20;;;23.50;91.70;;;;;;10132998;28;20047;-66
2022/07/03 07:21:41;;;;;;;1.70;1.25;;;23.70;91.60;;;;;;10132272;28;20029;-62
2022/07/03 07:26:31;;;;;;;1.67;1.10;;;23.90;91.30;;;;;;10131972;28;20114;-64
2022/07/03 07:31:22;;;;;;;1.60;0.90;;;24.10;91.10;;;;;;10132286;28;20107;-60
2022/07/03 07:36:13;;;;;;;2.15;1.17;;;24.10;91.00;;;;;;10133500;28;20032;-51
2022/07/03 07:41:03;;;;;;;1.08;0.98;;;24.30;90.90;;;;;;10132786;28;20013;-64
2022/07/03 07:45:54;;;;;;;2.42;0.90;;;24.40;90.60;;;;;;10132148;28;20028;-67
2022/07/03 07:50:45;;;;;;;2.05;0.90;;;24.40;90.60;;;;;;10133045;28;20498;-59
2022/07/03 07:55:35;;;;;;;2.28;0.93;;;24.50;90.50;;;;;;10132069;28;20029;-60
2022/07/03 08:00:26;;;;;;;1.80;1.20;;;24.70;90.30;;;;;;10132487;28;20275;-54
2022/07/03 08:05:35;;;;;;;1.33;0.80;;;24.80;90.20;;;;;;10133016;28;20119;-55
2022/07/03 08:10:25;;;;;;;2.85;1.27;;;25.00;90.10;;;;;;10133370;28;20180;-57
2022/07/03 08:15:16;;;;;;;2.28;1.10;;;25.00;90.00;;;;;;10130657;28;20338;-59
2022/07/03 08:20:07;;;;;;;2.20;1.30;;;25.20;89.70;;;;;;10113875;28;20252;-59
2022/07/03 08:24:58;;;;;;;1.42;1.02;;;25.20;89.40;;;;;;10130031;28;20561;-64
2022/07/03 08:29:49;;;;;;;1.33;1.05;;;25.40;89.10;;;;;;10105646;28;20124;-59
2022/07/03 08:34:39;;;;;;;1.17;0.80;;;25.50;88.60;;;;;;10133633;28;20103;-60
2022/07/03 08:39:30;;;;;;;1.70;1.20;;;25.70;88.10;;;;;;10131356;28;20056;-67
2022/07/03 08:44:22;;;;;;;2.15;0.98;;;25.80;87.50;;;;;;10131159;28;20035;-60
2022/07/03 08:49:12;;;;;;;1.38;1.08;;;26.00;87.00;;;;;;10136604;28;20024;-63
2022/07/03 08:54:05;;;;;;;1.30;1.10;;;26.00;86.40;;;;;;10137346;28;20025;-60
2022/07/03 08:59:01;;;;;;;3.45;1.58;;;26.20;85.80;;;;;;10138046;28;20025;-56
2022/07/03 09:03:52;;;;;;;1.35;0.82;;;26.20;85.40;;;;;;10137111;28;20430;-66
2022/07/03 09:08:44;;;;;;;1.13;0.80;;;26.20;84.70;;;;;;10137697;28;20031;-57
2022/07/03 09:13:35;;;;;;;1.83;0.70;;;26.40;83.40;;;;;;10134584;28;20399;-53
2022/07/03 09:18:40;;;;;;;3.72;0.80;;;26.60;82.40;;;;;;10136626;28;20020;-65
2022/07/03 09:23:41;;;;;;;1.15;1.15;;;26.60;80.40;;;;;;10136887;28;20034;-67
2022/07/03 09:28:51;;;;;;;1.40;0.70;;;26.60;79.60;;;;;;10136057;28;20498;-63
2022/07/03 09:34:08;;;;;;;0.90;0.70;;;26.70;78.30;;;;;;10137099;28;20017;-67
2022/07/03 09:38:58;;;;;;;3.47;0.70;;;26.70;77.30;;;;;;10131953;28;20051;-58
2022/07/03 09:43:49;;;;;;;1.80;0.70;;;26.70;77.00;;;;;;10113078;28;20478;-68
2022/07/03 09:48:41;;;;;;;1.25;0.80;;;26.80;76.20;;;;;;10136802;28;20036;-69
2022/07/03 09:53:49;;;;;;;1.10;0.63;;;26.90;75.00;;;;;;10136968;28;20039;-63
2022/07/03 09:58:40;;;;;;;0.63;0.60;;;27.00;73.20;;;;;;10135498;28;20025;-64
2022/07/03 10:03:30;;;;;;;0.90;0.77;;;27.10;73.00;;;;;;10134737;28;20024;-66
2022/07/03 10:08:21;;;;;;;4.97;1.00;;;27.20;72.10;;;;;;10135968;28;20123;-61
2022/07/03 10:13:13;;;;;;;0.73;0.70;;;27.20;71.00;;;;;;10117132;28;20040;-66
2022/07/03 10:18:09;;;;;;;1.15;0.70;;;27.30;70.20;;;;;;10134918;28;20036;-55
2022/07/03 10:23:00;;;;;;;1.20;0.57;;;27.40;69.30;;;;;;10134385;28;20031;-61
2022/07/03 10:27:51;;;;;;;1.10;0.90;;;27.40;69.10;;;;;;10134465;28;20040;-64
2022/07/03 10:32:45;;;;;;;0.65;0.60;;;27.60;68.80;;;;;;10134336;28;20025;-57
2022/07/03 10:37:49;;;;;;;1.27;1.17;;;27.80;68.20;;;;;;10133989;28;20043;-60
2022/07/03 10:47:49;;;;;;;1.27;0.75;;;27.70;67.50;;;;;;10134017;28;20071;-55
2022/07/03 10:52:41;;;;;;;0.90;0.57;;;27.80;67.00;;;;;;10133008;28;20067;-54
2022/07/03 10:57:32;;;;;;;1.17;0.95;;;27.90;66.60;;;;;;10134358;28;20025;-62
2022/07/03 11:02:35;;;;;;;0.98;0.63;;;28.00;66.20;;;;;;10132829;28;20029;-58
2022/07/03 11:07:26;;;;;;;1.27;0.77;;;28.00;65.20;;;;;;10133167;28;20512;-69
2022/07/03 11:12:55;;;;;;;2.05;0.80;;;28.10;65.10;;;;;;10131972;28;20215;-57
2022/07/03 11:18:08;;;;;;;2.33;1.02;;;28.30;64.70;;;;;;10133896;28;20547;-63
2022/07/03 11:22:59;;;;;;;0.77;0.70;;;28.30;64.40;;;;;;10133280;28;20418;-65
2022/07/03 11:27:52;;;;;;;1.15;0.80;;;28.40;64.40;;;;;;10132817;28;20035;-68
2022/07/03 11:32:48;;;;;;;1.15;0.93;;;28.60;64.10;;;;;;10133165;28;20017;-64
2022/07/03 11:37:39;;;;;;;3.17;0.90;;;28.80;63.40;;;;;;10132882;28;20029;-64
2022/07/03 11:42:34;;;;;;;2.20;1.00;;;28.80;63.00;;;;;;10132318;28;20020;-63
2022/07/03 11:47:25;;;;;;;2.83;1.02;;;28.70;62.80;;;;;;10132673;28;20276;-69
2022/07/03 11:52:32;;;;;;;2.65;1.17;;;28.80;62.60;;;;;;10132874;28;20231;-57
2022/07/03 11:57:23;;;;;;;1.20;0.77;;;29.10;61.50;;;;;;10132465;28;20067;-65
2022/07/03 12:02:13;;;;;;;1.38;1.17;;;29.00;61.80;;;;;;10131705;28;20090;-69
2022/07/03 12:07:04;;;;;;;1.05;0.82;;;29.40;61.60;;;;;;10132236;28;20070;-61
2022/07/03 12:11:59;;;;;;;1.15;0.80;;;29.80;61.20;;;;;;10131680;28;20044;-70
2022/07/03 12:16:52;;;;;;;0.88;0.85;;;30.20;60.40;;;;;;10131642;28;20056;-68
2022/07/03 12:21:43;;;;;;;1.17;0.95;;;30.50;60.00;;;;;;10135784;28;20031;-67
2022/07/03 12:26:35;;;;;;;1.23;0.70;;;31.10;60.20;;;;;;10139498;28;20039;-68
2022/07/03 12:31:26;;;;;;;1.97;0.73;;;31.20;60.50;;;;;;10140899;28;20362;-58
2022/07/03 12:36:17;;;;;;;1.10;0.93;;;31.70;60.30;;;;;;10142051;28;20047;-57
2022/07/03 12:41:09;;;;;;;2.58;0.82;;;32.00;60.10;;;;;;10138919;28;20504;-57
2022/07/03 12:46:00;;;;;;;1.70;1.17;;;32.10;60.00;;;;;;10139201;28;20044;-58
2022/07/03 12:50:52;;;;;;;3.80;0.90;;;32.30;59.60;;;;;;10118515;28;20040;-56
2022/07/03 12:55:45;;;;;;;2.20;0.55;;;32.90;59.20;;;;;;10137959;28;20021;-54
2022/07/03 13:00:47;;;;;;;0.90;0.80;;;33.10;58.10;;;;;;10137450;28;20024;-59
2022/07/03 13:05:42;;;;;;;0.77;0.50;;;33.00;56.60;;;;;;10137362;28;20063;-55
2022/07/03 13:10:32;;;;;;;1.45;0.70;;;33.00;55.70;;;;;;10134830;28;20623;-57
2022/07/03 13:15:30;;;;;;;1.20;0.85;;;33.80;55.00;;;;;;10136906;28;20303;-56
2022/07/03 13:20:25;;;;;;;1.40;0.90;;;34.50;54.10;;;;;;10137453;28;20036;-67
2022/07/03 13:25:15;;;;;;;1.40;0.90;;;36.00;53.00;;;;;;10137209;28;20068;-69
2022/07/03 13:30:06;;;;;;;;;;;37.20;51.60;;;;;;10136484;28;20013;-53
2022/07/03 13:34:57;;;;;;;3.90;2.42;;;37.60;50.50;;;;;;10135652;28;20007;-59
2022/07/03 13:39:48;;;;;;;1.10;1.05;;;39.10;50.20;;;;;;10136585;28;20513;-62
2022/07/03 13:44:38;;;;;;;13.93;12.60;;;39.50;48.80;;;;;;10115132;28;20041;-62
2022/07/03 13:49:29;;;;;;;12.18;10.90;;;40.00;47.10;;;;;;10117288;28;20044;-66
2022/07/03 13:54:19;;;;;;;4.50;4.10;;;40.10;46.40;;;;;;10135360;28;20021;-66
2022/07/03 13:59:11;;;;;;;2.50;2.15;;;39.80;45.70;;;;;;10135949;28;20532;-57
2022/07/03 14:04:02;;;;;;;4.25;2.40;;;39.80;44.90;;;;;;10134530;28;20059;-57
2022/07/03 14:08:53;;;;;;;1.33;1.20;;;39.50;44.40;;;;;;10134770;28;20518;-53
2022/07/03 14:13:43;;;;;;;3.80;2.33;;;40.00;43.70;;;;;;10134082;28;20090;-62
2022/07/03 14:18:34;;;;;;;1.63;1.35;;;39.90;43.60;;;;;;10134676;28;20470;-60
2022/07/03 14:23:25;;;;;;;2.33;1.00;;;40.40;43.20;;;;;;10134312;28;20020;-57
2022/07/03 14:33:25;;;;;;;1.23;1.13;;;39.90;42.30;;;;;;10132529;28;20074;-57
2022/07/03 14:38:16;;;;;;;2.17;0.75;;;39.90;42.40;;;;;;10134663;28;20077;-57
2022/07/03 14:43:07;;;;;;;1.65;1.33;;;39.60;42.60;;;;;;10132423;28;20043;-68
2022/07/03 14:47:57;;;;;;;1.42;0.90;;;39.90;43.30;;;;;;10133652;28;20087;-66
2022/07/03 14:52:48;;;;;;;3.67;1.15;;;40.10;42.10;;;;;;10131671;28;20473;-58
2022/07/03 14:57:51;;;;;;;1.23;1.13;;;40.30;42.00;;;;;;10133203;28;20036;-59
2022/07/03 15:03:05;;;;;;;1.15;1.00;;;40.80;41.50;;;;;;10133127;28;20036;-58
2022/07/03 15:08:03;;;;;;;2.92;1.10;;;41.30;41.10;;;;;;10128809;28;20857;-56
2022/07/03 15:12:54;;;;;;;1.13;0.90;;;41.20;41.00;;;;;;10132241;28;20102;-64
2022/07/03 15:17:49;;;;;;;1.20;1.08;;;40.50;40.50;;;;;;10132978;28;20020;-57
2022/07/03 15:22:42;;;;;;;0.95;0.95;;;40.10;40.60;;;;;;10134445;28;20021;-61
2022/07/03 15:27:33;;;;;;;1.45;1.08;;;39.70;40.80;;;;;;10132588;28;20040;-67
2022/07/03 15:32:24;;;;;;;1.60;0.90;;;39.00;41.30;;;;;;10132299;28;20028;-64
2022/07/03 15:37:18;;;;;;;1.88;1.20;;;38.50;41.50;;;;;;10133114;28;20446;-67
2022/07/03 15:42:17;;;;;;;3.85;1.25;;;38.30;41.50;;;;;;10132327;28;20023;-66
2022/07/03 15:47:46;;;;;;;1.85;0.85;;;38.10;41.50;;;;;;10131924;28;20024;-66
2022/07/03 15:52:39;;;;;;;1.25;1.15;;;38.50;41.30;;;;;;10009982;28;20044;-60
2022/07/03 15:58:09;;;;;;;1.15;0.90;;;38.80;41.50;;;;;;10138519;28;20021;-55
2022/07/03 16:03:32;;;;;;;1.90;0.85;;;38.60;41.30;;;;;;10121460;28;20025;-65
2022/07/03 16:08:24;;;;;;;1.30;1.00;;;38.90;41.20;;;;;;10122192;28;20032;-61
2022/07/03 16:13:15;;;;;;;2.25;0.82;;;38.60;41.40;;;;;;10139780;28;20056;-64
2022/07/03 16:18:06;;;;;;;3.60;2.30;;;37.00;42.10;;;;;;10139838;28;20031;-57
2022/07/03 16:23:10;;;;;;;4.13;2.07;;;35.20;43.30;;;;;;10138934;28;20024;-63
2022/07/03 16:28:03;;;;;;;2.78;1.80;;;34.40;43.80;;;;;;10138781;28;20450;-53
2022/07/03 16:32:54;;;;;;;;;;;34.10;43.90;;;;;;10139350;28;20051;-51
2022/07/03 16:38:04;;;;;;;2.25;1.17;;;34.70;43.80;;;;;;10138959;28;19950;-58
2022/07/03 16:42:58;;;;;;;4.25;1.33;;;36.90;42.70;;;;;;10138491;28;20100;-57
2022/07/03 16:47:50;;;;;;;3.70;1.17;;;38.20;42.10;;;;;;10138828;28;20554;-56
2022/07/03 16:52:52;;;;;;;1.20;1.10;;;39.40;41.40;;;;;;10137589;28;20378;-59
2022/07/03 16:57:54;;;;;;;8.88;1.60;;;37.20;41.70;;;;;;10137912;28;20522;-60
2022/07/03 17:02:46;;;;;;;1.80;1.10;;;35.80;43.20;;;;;;10138336;28;20020;-61
2022/07/03 17:07:41;;;;;;;1.87;1.20;;;36.60;43.50;;;;;;10136986;28;20044;-60
2022/07/03 17:12:32;;;;;;;2.60;0.90;;;38.30;41.80;;;;;;10138145;28;20126;-54
2022/07/03 17:17:23;;;;;;;1.42;1.08;;;36.80;42.20;;;;;;10136578;28;20505;-60
2022/07/03 17:22:16;;;;;;;2.28;1.00;;;35.10;43.80;;;;;;10137135;28;20035;-59
2022/07/03 17:27:13;;;;;;;2.17;1.45;;;35.40;44.00;;;;;;10136517;28;20552;-57
2022/07/03 17:32:04;;;;;;;2.28;1.13;;;36.60;42.50;;;;;;10137477;28;20395;-64
2022/07/03 17:36:55;;;;;;;1.00;0.90;;;38.60;41.50;;;;;;10138470;28;20040;-62
2022/07/03 17:41:48;;;;;;;2.50;1.45;;;37.60;41.50;;;;;;10136268;28;20098;-66
2022/07/03 17:46:40;;;;;;;0.90;0.82;;;36.40;42.60;;;;;;10136873;28;20043;-63
2022/07/03 17:51:30;;;;;;;2.43;1.70;;;35.00;43.70;;;;;;10136270;28;20038;-69
2022/07/03 17:56:23;;;;;;;1.42;1.33;;;34.90;44.30;;;;;;10135342;28;20024;-56
2022/07/03 18:01:15;;;;;;;;;;;36.00;42.80;;;;;;10135445;28;20013;-58
2022/07/03 18:06:08;;;;;;;1.13;1.00;;;35.40;43.40;;;;;;10135437;28;19913;-56
2022/07/03 18:11:10;;;;;;;2.20;1.15;;;34.20;44.80;;;;;;10137220;28;20537;-55
2022/07/03 18:16:10;;;;;;;3.17;1.05;;;33.20;45.90;;;;;;10135205;28;20028;-61
2022/07/03 18:21:03;;;;;;;2.30;1.23;;;32.70;46.30;;;;;;10126826;28;20323;-58
2022/07/03 18:25:56;;;;;;;4.03;1.70;;;33.00;46.20;;;;;;10134669;28;20549;-65
2022/07/03 18:30:47;;;;;;;;;;;32.50;46.80;;;;;;10134520;28;20027;-61
2022/07/03 18:35:39;;;;;;;4.22;1.27;;;32.20;47.30;;;;;;10134220;28;19910;-69
2022/07/03 18:40:32;;;;;;;1.38;1.00;;;32.10;47.40;;;;;;10133326;28;20487;-66
2022/07/03 18:45:22;;;;;;;2.53;1.20;;;31.90;47.90;;;;;;10134746;28;20384;-66
2022/07/03 18:50:13;;;;;;;1.67;1.10;;;31.60;48.20;;;;;;10106435;28;20033;-63
2022/07/03 18:55:25;;;;;;;3.47;1.50;;;31.50;48.30;;;;;;10127015;28;20205;-66
2022/07/03 19:00:22;;;;;;;1.77;1.20;;;31.40;48.10;;;;;;10125647;28;20028;-65
2022/07/03 19:05:13;;;;;;;4.32;1.95;;;31.20;48.20;;;;;;10132597;28;20482;-63
2022/07/03 19:10:09;;;;;;;2.38;1.48;;;31.10;48.50;;;;;;10132283;28;20049;-60
2022/07/03 19:15:00;;;;;;;4.45;1.58;;;30.90;48.70;;;;;;10132578;28;20199;-64
2022/07/03 19:19:51;;;;;;;3.22;1.77;;;30.90;48.60;;;;;;10132272;28;20103;-62
2022/07/03 19:24:42;;;;;;;5.35;2.95;;;30.80;48.90;;;;;;10132011;28;20024;-66
2022/07/03 19:29:33;;;;;;;6.55;3.47;;;30.70;49.00;;;;;;10132328;28;20035;-65
2022/07/03 19:34:24;;;;;;;3.33;1.50;;;30.60;48.90;;;;;;10132602;28;20037;-63
2022/07/03 19:39:14;;;;;;;3.30;2.17;;;30.40;49.10;;;;;;10132259;28;20029;-65
2022/07/03 19:44:05;;;;;;;2.78;1.40;;;30.30;49.40;;;;;;10131762;28;20043;-65
2022/07/03 19:48:56;;;;;;;4.15;1.70;;;30.30;49.40;;;;;;10131761;28;20114;-66
2022/07/03 19:53:46;;;;;;;1.88;1.23;;;30.20;49.20;;;;;;10111561;28;20021;-66
2022/07/03 19:58:38;;;;;;;2.58;1.13;;;29.80;49.40;;;;;;10132486;28;20490;-62
2022/07/03 20:03:30;;;;;;;4.07;1.05;;;29.40;49.80;;;;;;10129191;28;20037;-65
2022/07/03 20:08:21;;;;;;;5.25;2.78;;;29.30;49.70;;;;;;10127835;28;20041;-64
2022/07/03 20:13:11;;;;;;;3.28;2.20;;;29.10;49.70;;;;;;10127798;28;20051;-64
2022/07/03 20:18:05;;;;;;;2.40;1.00;;;28.90;49.90;;;;;;10130696;28;20054;-65
2022/07/03 20:22:56;;;;;;;3.17;1.25;;;28.70;50.40;;;;;;10131335;28;20029;-66
2022/07/03 20:27:47;;;;;;;1.60;1.10;;;28.40;50.50;;;;;;10130350;28;20223;-65
2022/07/03 20:32:37;;;;;;;2.28;1.08;;;28.40;50.40;;;;;;10131209;28;20414;-64
2022/07/03 20:37:28;;;;;;;4.63;1.40;;;28.20;50.80;;;;;;10131491;28;20028;-66
2022/07/03 20:42:19;;;;;;;3.70;1.25;;;28.20;50.80;;;;;;10133042;28;20116;-67
2022/07/03 20:47:09;;;;;;;3.80;1.45;;;28.10;51.00;;;;;;10125711;28;20036;-64
2022/07/03 20:52:01;;;;;;;2.17;1.17;;;27.90;51.30;;;;;;10139874;28;20459;-65
2022/07/03 20:56:52;;;;;;;4.07;1.17;;;27.70;51.90;;;;;;10133001;28;20613;-64
2022/07/03 21:01:43;;;;;;;1.23;0.95;;;27.60;52.00;;;;;;10131227;28;20054;-64
2022/07/03 21:06:36;;;;;;;1.63;1.00;;;27.50;52.50;;;;;;10138991;28;20351;-68
2022/07/03 21:11:33;;;;;;;1.60;1.05;;;27.30;52.80;;;;;;10138283;28;20507;-66
2022/07/03 21:16:24;;;;;;;3.83;1.00;;;27.30;52.90;;;;;;10137625;28;20168;-66
2022/07/03 21:21:15;;;;;;;1.92;1.40;;;27.40;53.70;;;;;;10137765;28;20017;-66
2022/07/03 21:26:06;;;;;;;2.97;1.27;;;27.20;53.40;;;;;;10138574;28;20090;-67
2022/07/03 21:30:57;;;;;;;1.58;1.10;;;27.10;53.80;;;;;;10137340;28;20454;-61
2022/07/03 21:35:48;;;;;;;2.35;1.15;;;27.00;53.90;;;;;;10137978;28;20024;-66
2022/07/03 21:40:38;;;;;;;1.92;1.10;;;27.00;53.80;;;;;;10137660;28;20108;-68
2022/07/03 21:45:29;;;;;;;1.67;0.93;;;26.80;54.60;;;;;;10137543;28;20417;-65
2022/07/03 21:50:19;;;;;;;2.97;1.15;;;26.70;54.70;;;;;;10135166;28;20028;-69
2022/07/03 21:55:10;;;;;;;5.93;1.30;;;26.90;54.60;;;;;;10135972;28;20374;-63
2022/07/03 22:00:01;;;;;;;2.13;1.20;;;26.60;55.10;;;;;;10136727;28;20311;-67
2022/07/03 22:04:52;;;;;;;1.70;1.08;;;26.40;55.50;;;;;;10118382;28;20044;-66
2022/07/03 22:09:42;;;;;;;2.50;1.02;;;26.50;55.80;;;;;;10135494;28;20055;-64
2022/07/03 22:14:33;;;;;;;1.25;0.93;;;26.50;56.10;;;;;;10136051;28;20040;-67
2022/07/03 22:19:24;;;;;;;1.88;1.10;;;26.50;56.20;;;;;;10135806;28;20024;-61
2022/07/03 22:24:14;;;;;;;2.45;1.05;;;26.30;56.40;;;;;;10134646;28;20051;-60
2022/07/03 22:29:05;;;;;;;2.75;0.90;;;26.30;56.30;;;;;;10134041;28;20394;-65
2022/07/03 22:33:56;;;;;;;4.07;1.00;;;26.20;57.20;;;;;;10130240;28;20036;-65
2022/07/03 22:38:48;;;;;;;2.45;0.70;;;26.30;56.60;;;;;;10133439;28;20029;-65
2022/07/03 22:43:39;;;;;;;3.65;1.20;;;26.20;56.70;;;;;;10135319;28;20542;-63
2022/07/03 22:48:29;;;;;;;2.60;1.38;;;26.10;57.00;;;;;;10132067;28;20107;-66
2022/07/03 22:53:20;;;;;;;3.05;1.10;;;26.00;57.00;;;;;;10132086;28;20020;-65
2022/07/03 22:58:11;;;;;;;1.50;1.08;;;25.80;57.30;;;;;;10133534;28;20453;-65
2022/07/03 23:03:01;;;;;;;1.48;0.90;;;25.60;57.60;;;;;;10131903;28;20021;-63
2022/07/03 23:07:52;;;;;;;1.08;0.98;;;25.70;57.60;;;;;;10132847;28;20063;-66
2022/07/03 23:12:42;;;;;;;2.47;0.98;;;25.50;58.00;;;;;;10132921;28;20044;-67
2022/07/03 23:17:33;;;;;;;2.80;1.05;;;25.20;58.60;;;;;;10132656;28;20032;-65
2022/07/03 23:22:24;;;;;;;1.65;1.10;;;25.20;58.80;;;;;;10132166;28;20426;-63
2022/07/03 23:27:14;;;;;;;1.30;1.02;;;25.20;58.90;;;;;;10131894;28;20045;-65
2022/07/03 23:32:06;;;;;;;2.20;1.00;;;25.30;58.70;;;;;;10132422;28;20024;-67
2022/07/03 23:36:56;;;;;;;1.50;0.82;;;25.20;58.70;;;;;;10132001;28;20099;-63
2022/07/03 23:41:47;;;;;;;2.05;1.30;;;24.70;59.60;;;;;;10132662;28;20107;-60
2022/07/03 23:46:37;;;;;;;1.23;0.90;;;24.80;59.70;;;;;;10131811;28;20044;-62
2022/07/03 23:51:28;;;;;;;2.63;0.90;;;24.80;59.70;;;;;;10131419;28;20020;-65
2022/07/03 23:56:19;;;;;;;1.63;0.70;;;24.80;59.60;;;;;;10131605;28;20040;-60
